Time;durP1;ratioP1;P1;durP2;ratioP2;P2;SDS_P1;SDS_P2;PMS_P1;PMS_P2;Temp;Humidity;BMP_temperature;BMP_pressure;BME280_temperature;BME280_humidity;BME280_pressure;Samples;Min_cycle;Max_cycle;Signal;HPM_P1;HPM_P2
2023/04/25 00:02:09;;;;;;;4.80;2.70;;;9.10;84.40;;;;;;5010188;28;21031;-70
2023/04/25 00:04:37;;;;;;;2.83;2.10;;;9.00;84.60;;;;;;5012776;28;20819;-70
2023/04/25 00:07:05;;;;;;;1.90;1.80;;;8.90;86.50;;;;;;5013775;28;20461;-70
2023/04/25 00:09:32;;;;;;;4.50;1.93;;;8.90;87.10;;;;;;5013402;28;20976;-72
2023/04/25 00:12:01;;;;;;;2.60;2.40;;;8.80;87.00;;;;;;4993494;28;20526;-70
2023/04/25 00:14:28;;;;;;;2.40;2.20;;;8.80;87.10;;;;;;4992925;28;20452;-70
2023/04/25 00:16:55;;;;;;;4.43;2.20;;;8.80;88.90;;;;;;4993451;28;20446;-70
2023/04/25 00:19:22;;;;;;;2.40;2.20;;;8.70;89.70;;;;;;4993457;28;20537;-69
2023/04/25 00:21:50;;;;;;;2.50;2.10;;;8.70;89.30;;;;;;4993497;28;20457;-70
2023/04/25 00:24:17;;;;;;;3.30;2.20;;;8.70;89.30;;;;;;4992147;28;20456;-70
2023/04/25 00:26:44;;;;;;;2.30;2.10;;;8.80;87.60;;;;;;4998754;28;20489;-71
2023/04/25 00:29:11;;;;;;;2.20;2.00;;;8.70;87.20;;;;;;5013222;28;20830;-70
2023/04/25 00:31:37;;;;;;;2.70;1.87;;;8.80;89.20;;;;;;5013368;28;20451;-70
2023/04/25 00:34:04;;;;;;;2.43;2.20;;;8.70;90.00;;;;;;5012748;28;20826;-70
2023/04/25 00:36:31;;;;;;;2.10;1.90;;;8.60;90.20;;;;;;5013260;28;20442;-70
2023/04/25 00:38:59;;;;;;;2.53;2.00;;;8.70;89.40;;;;;;5013358;28;20459;-70
2023/04/25 00:41:27;;;;;;;2.67;2.47;;;8.80;88.50;;;;;;5012934;28;20863;-71
2023/04/25 00:43:55;;;;;;;2.40;2.20;;;8.70;88.10;;;;;;5003982;28;20530;-71
2023/04/25 00:46:22;;;;;;;2.40;1.97;;;8.70;88.50;;;;;;4993614;28;20480;-70
2023/04/25 00:48:49;;;;;;;3.57;1.97;;;8.70;87.30;;;;;;4993280;28;20444;-70
2023/04/25 00:51:20;;;;;;;2.10;1.90;;;8.70;88.30;;;;;;4992881;28;20451;-71
2023/04/25 00:53:47;;;;;;;4.00;3.00;;;8.60;87.00;;;;;;4992035;28;20468;-70
2023/04/25 00:56:15;;;;;;;2.37;2.00;;;8.70;87.60;;;;;;4992597;28;20447;-70
2023/04/25 00:58:42;;;;;;;2.23;2.03;;;8.80;87.40;;;;;;4993015;28;20454;-70
2023/04/25 01:01:10;;;;;;;4.80;2.27;;;8.80;89.80;;;;;;4994431;28;20481;-70
2023/04/25 01:03:40;;;;;;;2.97;2.20;;;8.70;90.80;;;;;;4992422;28;21163;-71
2023/04/25 01:06:08;;;;;;;3.00;1.93;;;8.70;89.10;;;;;;4993271;28;20487;-69
2023/04/25 01:08:35;;;;;;;2.33;2.13;;;8.70;87.20;;;;;;4993338;28;20463;-70
2023/04/25 01:11:02;;;;;;;3.73;1.77;;;8.70;86.80;;;;;;4992905;28;20454;-70
2023/04/25 01:13:31;;;;;;;3.13;2.07;;;8.70;87.30;;;;;;4991297;28;20498;-72
2023/04/25 01:15:58;;;;;;;2.40;1.80;;;8.70;86.80;;;;;;4992374;28;20509;-71
2023/04/25 01:18:25;;;;;;;2.93;1.73;;;8.60;87.70;;;;;;5011703;28;20544;-72
2023/04/25 01:20:52;;;;;;;3.97;1.97;;;8.70;86.80;;;;;;5012379;28;20500;-71
2023/04/25 01:23:21;;;;;;;3.53;1.80;;;8.60;87.20;;;;;;5010889;28;20516;-70
2023/04/25 01:25:48;;;;;;;1.80;1.70;;;8.70;86.50;;;;;;5012271;28;20480;-71
2023/04/25 01:28:15;;;;;;;2.30;2.10;;;8.70;86.60;;;;;;5011945;28;20455;-71
2023/04/25 01:30:42;;;;;;;1.87;1.60;;;8.80;86.60;;;;;;5012472;28;20952;-71
2023/04/25 01:33:09;;;;;;;2.23;2.10;;;8.80;87.40;;;;;;5005400;28;20475;-71
2023/04/25 01:35:36;;;;;;;2.27;1.80;;;8.80;86.50;;;;;;4992547;28;20454;-71
2023/04/25 01:38:03;;;;;;;2.30;2.10;;;8.70;86.00;;;;;;4992808;28;20971;-71
2023/04/25 01:40:32;;;;;;;3.77;2.10;;;8.60;87.50;;;;;;4992552;28;20817;-71
2023/04/25 01:42:59;;;;;;;2.07;1.87;;;8.50;86.00;;;;;;4992701;28;20467;-71
2023/04/25 01:45:26;;;;;;;2.43;2.23;;;8.40;87.60;;;;;;4992382;28;20562;-71
2023/04/25 01:47:52;;;;;;;2.27;2.07;;;8.50;87.10;;;;;;4992131;28;20445;-69
2023/04/25 01:50:20;;;;;;;2.73;2.27;;;8.50;87.60;;;;;;5000760;28;20453;-70
2023/04/25 01:52:47;;;;;;;2.77;2.20;;;8.50;87.50;;;;;;5009975;28;20480;-70
2023/04/25 01:55:13;;;;;;;3.13;2.40;;;8.50;88.00;;;;;;5011052;28;21007;-71
2023/04/25 01:57:41;;;;;;;4.13;2.20;;;8.50;89.10;;;;;;4992544;28;20928;-71
2023/04/25 02:00:10;;;;;;;2.73;2.53;;;8.50;88.50;;;;;;4991907;28;20537;-71
2023/04/25 02:02:37;;;;;;;2.17;1.97;;;8.50;87.90;;;;;;4990679;28;20525;-70
2023/04/25 02:05:04;;;;;;;2.60;2.40;;;8.50;88.00;;;;;;4992237;28;20440;-70
2023/04/25 02:07:30;;;;;;;2.53;2.20;;;8.60;86.90;;;;;;4992578;28;21019;-70
2023/04/25 02:09:57;;;;;;;2.90;2.47;;;8.70;87.60;;;;;;4992184;28;20451;-70
2023/04/25 02:12:26;;;;;;;2.73;2.50;;;8.70;85.70;;;;;;4990790;28;20474;-70
2023/04/25 02:14:54;;;;;;;3.73;2.87;;;8.80;85.10;;;;;;4991325;28;21137;-70
2023/04/25 02:17:21;;;;;;;2.37;2.17;;;8.80;84.90;;;;;;4991194;28;20450;-69
2023/04/25 02:19:48;;;;;;;2.30;2.10;;;8.80;84.00;;;;;;4991533;28;20445;-70
2023/04/25 02:22:15;;;;;;;3.37;2.70;;;8.80;85.00;;;;;;4999214;28;20474;-69
2023/04/25 02:24:42;;;;;;;3.97;2.70;;;8.80;84.60;;;;;;5010461;28;20457;-70
2023/04/25 02:27:09;;;;;;;3.90;2.83;;;8.80;86.00;;;;;;5011921;28;20488;-70
2023/04/25 02:29:36;;;;;;;3.47;2.60;;;8.80;85.80;;;;;;5016572;28;20438;-69
2023/04/25 02:32:05;;;;;;;3.00;2.70;;;8.70;88.90;;;;;;5023555;28;20472;-70
2023/04/25 02:34:31;;;;;;;3.57;3.27;;;8.50;90.10;;;;;;5023852;28;20454;-70
2023/04/25 02:36:58;;;;;;;4.07;3.70;;;8.30;91.20;;;;;;5017388;28;20452;-70
2023/04/25 02:39:27;;;;;;;3.20;2.90;;;8.20;92.50;;;;;;5000268;28;20457;-70
2023/04/25 02:41:53;;;;;;;3.77;3.43;;;8.10;91.80;;;;;;4991557;28;20887;-71
2023/04/25 02:44:20;;;;;;;4.57;3.50;;;8.00;92.30;;;;;;4990236;28;20443;-70
2023/04/25 02:46:47;;;;;;;4.80;3.33;;;7.90;93.00;;;;;;4991236;28;20501;-70
2023/04/25 02:49:15;;;;;;;3.83;3.30;;;7.90;92.90;;;;;;4990873;28;20455;-70
2023/04/25 02:51:42;;;;;;;4.77;3.20;;;7.90;93.20;;;;;;4990815;28;20457;-70
2023/04/25 02:54:09;;;;;;;4.20;3.50;;;7.90;93.50;;;;;;4989971;28;20450;-70
2023/04/25 02:56:36;;;;;;;3.43;3.13;;;7.90;93.90;;;;;;5005554;28;20829;-69
2023/04/25 02:59:03;;;;;;;5.10;3.90;;;7.90;93.20;;;;;;5010664;28;20476;-69
2023/04/25 03:01:30;;;;;;;3.40;3.10;;;7.90;93.20;;;;;;5010496;28;20449;-70
2023/04/25 03:03:56;;;;;;;5.30;3.00;;;7.90;93.10;;;;;;5008927;28;20456;-70
2023/04/25 03:06:24;;;;;;;4.40;3.70;;;7.90;93.00;;;;;;5010480;28;20481;-70
2023/04/25 03:08:51;;;;;;;3.80;3.50;;;7.90;93.10;;;;;;5010401;28;20446;-71
2023/04/25 03:11:20;;;;;;;5.50;3.70;;;7.90;93.30;;;;;;5010826;28;20450;-70
2023/04/25 03:13:46;;;;;;;3.83;3.43;;;8.00;93.30;;;;;;4990530;28;20830;-71
2023/04/25 03:16:13;;;;;;;4.50;3.90;;;7.90;93.80;;;;;;4990875;28;20435;-71
2023/04/25 03:18:40;;;;;;;4.33;3.23;;;7.90;94.40;;;;;;4990811;28;20450;-70
2023/04/25 03:21:07;;;;;;;4.17;3.80;;;7.90;94.00;;;;;;4990747;28;20450;-70
2023/04/25 03:23:35;;;;;;;4.73;3.13;;;7.80;94.00;;;;;;4989850;28;21033;-70
2023/04/25 03:26:02;;;;;;;3.57;3.30;;;7.80;93.90;;;;;;4990602;28;20486;-69
2023/04/25 03:28:29;;;;;;;6.67;6.07;;;7.80;94.00;;;;;;4992187;28;20551;-70
2023/04/25 03:30:55;;;;;;;3.67;3.37;;;7.80;94.20;;;;;;4991083;28;20614;-71
2023/04/25 03:33:23;;;;;;;4.07;3.77;;;7.80;94.10;;;;;;4989512;28;20986;-71
2023/04/25 03:35:50;;;;;;;3.90;3.60;;;7.70;94.30;;;;;;4991177;28;20455;-70
2023/04/25 03:38:17;;;;;;;4.23;3.83;;;7.60;95.30;;;;;;4992106;28;20457;-70
2023/04/25 03:40:45;;;;;;;3.60;3.30;;;7.60;95.80;;;;;;4995046;28;20465;-69
2023/04/25 03:43:12;;;;;;;4.03;3.63;;;7.60;95.50;;;;;;5024449;28;20471;-70
2023/04/25 03:45:39;;;;;;;4.20;3.90;;;7.60;95.10;;;;;;5018974;28;20451;-70
2023/04/25 03:48:06;;;;;;;4.33;3.93;;;7.60;94.40;;;;;;4995336;28;20501;-70
2023/04/25 03:50:33;;;;;;;3.97;3.67;;;7.70;94.20;;;;;;4995296;28;20826;-70
2023/04/25 03:52:59;;;;;;;5.37;3.80;;;7.80;93.90;;;;;;4994222;28;20851;-70
2023/04/25 03:55:26;;;;;;;4.13;3.50;;;7.90;93.90;;;;;;4996219;28;20450;-70
2023/04/25 03:57:54;;;;;;;4.30;3.90;;;7.90;94.00;;;;;;5014695;28;20453;-70
2023/04/25 04:00:21;;;;;;;6.20;3.87;;;8.00;93.70;;;;;;5014485;28;20446;-68
2023/04/25 04:02:48;;;;;;;3.97;3.63;;;8.00;93.80;;;;;;5014084;28;20462;-69
2023/04/25 04:05:15;;;;;;;3.90;3.50;;;8.10;94.00;;;;;;5015936;28;20452;-72
2023/04/25 04:07:42;;;;;;;6.50;4.10;;;8.00;93.40;;;;;;5015446;28;20481;-71
2023/04/25 04:10:10;;;;;;;5.07;4.57;;;8.00;93.00;;;;;;5008771;28;20453;-71
2023/04/25 04:12:37;;;;;;;4.50;4.10;;;7.90;93.70;;;;;;4993307;28;20478;-71
2023/04/25 04:15:07;;;;;;;5.73;4.77;;;7.90;92.50;;;;;;4993870;28;20463;-71
2023/04/25 04:17:34;;;;;;;6.30;4.30;;;7.90;92.50;;;;;;4993719;28;20935;-70
2023/04/25 04:20:01;;;;;;;5.23;4.70;;;7.90;92.40;;;;;;4993979;28;20462;-70
2023/04/25 04:22:28;;;;;;;5.50;4.30;;;7.90;92.50;;;;;;4992595;28;20507;-70
2023/04/25 04:24:56;;;;;;;6.07;4.50;;;8.00;92.30;;;;;;4993727;28;20457;-70
2023/04/25 04:27:23;;;;;;;5.03;4.53;;;8.00;92.40;;;;;;4994399;28;20996;-71
2023/04/25 04:29:52;;;;;;;5.70;5.20;;;8.00;92.80;;;;;;4994247;28;20457;-71
2023/04/25 04:32:20;;;;;;;5.10;4.50;;;7.90;92.50;;;;;;4993282;28;20481;-71
2023/04/25 04:34:48;;;;;;;5.37;4.83;;;7.90;92.90;;;;;;5003746;28;21024;-72
2023/04/25 04:37:15;;;;;;;5.07;4.60;;;7.90;92.30;;;;;;5012952;28;21062;-73
2023/04/25 04:39:42;;;;;;;4.70;4.30;;;8.00;92.30;;;;;;5013230;28;20485;-72
2023/04/25 04:42:11;;;;;;;4.77;4.27;;;8.10;92.10;;;;;;5013778;28;20475;-73
2023/04/25 04:44:38;;;;;;;4.80;4.40;;;8.10;91.80;;;;;;5013423;28;20957;-73
2023/04/25 04:47:06;;;;;;;5.83;4.97;;;8.10;92.00;;;;;;5013062;28;20576;-72
2023/04/25 04:49:34;;;;;;;3.93;3.63;;;8.30;92.00;;;;;;5012701;28;20461;-71
2023/04/25 04:52:01;;;;;;;8.07;4.83;;;8.30;92.10;;;;;;5014012;28;20483;-70
2023/04/25 04:54:28;;;;;;;4.60;4.20;;;8.40;90.80;;;;;;5013120;28;20451;-72
2023/04/25 04:56:55;;;;;;;4.00;3.60;;;8.40;91.10;;;;;;5015700;28;20477;-72
2023/04/25 04:59:21;;;;;;;5.30;4.80;;;8.30;90.90;;;;;;4995976;28;20481;-73
2023/04/25 05:01:48;;;;;;;4.40;4.00;;;8.30;91.40;;;;;;4998193;28;20533;-72
2023/04/25 05:04:15;;;;;;;6.73;3.83;;;8.40;91.10;;;;;;4997111;28;20550;-73
2023/04/25 05:06:44;;;;;;;5.03;3.87;;;8.40;90.90;;;;;;4995540;28;20485;-73
2023/04/25 05:09:10;;;;;;;4.10;3.70;;;8.50;90.40;;;;;;4995807;28;20516;-73
2023/04/25 05:11:37;;;;;;;3.97;3.67;;;8.50;91.10;;;;;;4995177;28;20457;-73
2023/04/25 05:14:04;;;;;;;7.40;3.70;;;8.60;90.70;;;;;;4996321;28;20568;-73
2023/04/25 05:16:31;;;;;;;4.57;4.17;;;8.70;90.40;;;;;;5007480;28;20446;-72
2023/04/25 05:18:58;;;;;;;6.00;3.90;;;8.80;90.20;;;;;;4993339;28;20459;-73
2023/04/25 05:21:25;;;;;;;4.57;4.10;;;8.90;90.60;;;;;;5000480;28;20465;-73
2023/04/25 05:23:53;;;;;;;3.47;3.17;;;9.00;89.50;;;;;;5010892;28;20474;-72
2023/04/25 05:26:20;;;;;;;4.50;3.90;;;9.10;87.00;;;;;;5015316;28;20541;-72
2023/04/25 05:28:47;;;;;;;5.47;5.07;;;9.20;87.10;;;;;;5016196;28;20496;-72
2023/04/25 05:31:14;;;;;;;5.10;4.57;;;9.20;87.50;;;;;;5006826;28;20830;-73
2023/04/25 05:33:41;;;;;;;4.53;4.13;;;9.10;89.10;;;;;;4992774;28;20558;-72
2023/04/25 05:36:08;;;;;;;4.50;4.10;;;8.90;90.00;;;;;;4997374;28;20457;-71
2023/04/25 05:38:35;;;;;;;5.30;4.80;;;8.70;91.70;;;;;;4997436;28;20447;-72
2023/04/25 05:41:03;;;;;;;5.07;4.57;;;8.50;92.00;;;;;;4997208;28;20533;-71
2023/04/25 05:43:30;;;;;;;5.60;5.10;;;8.40;92.50;;;;;;4994897;28;20548;-73
2023/04/25 05:45:57;;;;;;;4.93;4.40;;;8.30;92.70;;;;;;4996150;28;20541;-73
2023/04/25 05:48:24;;;;;;;6.13;5.53;;;8.20;93.00;;;;;;4997535;28;20487;-71
2023/04/25 05:50:51;;;;;;;5.70;5.20;;;8.20;93.70;;;;;;4996168;28;20450;-72
2023/04/25 05:53:18;;;;;;;7.80;6.20;;;8.10;94.60;;;;;;4993137;28;20475;-72
2023/04/25 05:55:45;;;;;;;7.40;5.70;;;8.20;94.20;;;;;;4995178;28;20535;-71
2023/04/25 05:58:13;;;;;;;6.43;5.57;;;8.20;94.10;;;;;;5013595;28;20485;-71
2023/04/25 06:00:41;;;;;;;6.27;5.67;;;8.20;94.30;;;;;;5013799;28;20455;-71
2023/04/25 06:03:09;;;;;;;7.20;6.20;;;8.20;93.40;;;;;;5012349;28;20468;-71
2023/04/25 06:05:36;;;;;;;6.17;5.57;;;8.20;94.10;;;;;;5013605;28;20438;-71
2023/04/25 06:08:03;;;;;;;5.77;5.20;;;8.30;93.40;;;;;;5013139;28;20523;-72
2023/04/25 06:10:30;;;;;;;6.70;5.47;;;8.30;92.80;;;;;;5004284;28;20815;-71
2023/04/25 06:12:57;;;;;;;5.03;4.53;;;8.30;93.20;;;;;;4991542;28;20561;-72
2023/04/25 06:15:25;;;;;;;6.07;5.50;;;8.30;92.90;;;;;;4992729;28;20550;-72
2023/04/25 06:17:52;;;;;;;5.57;5.00;;;8.30;93.60;;;;;;4992233;28;20454;-72
2023/04/25 06:20:22;;;;;;;5.20;4.73;;;8.40;93.90;;;;;;4992949;28;20461;-71
2023/04/25 06:22:49;;;;;;;5.27;4.83;;;8.50;93.90;;;;;;4991450;28;20507;-71
2023/04/25 06:25:16;;;;;;;5.97;5.37;;;8.50;92.30;;;;;;4992378;28;20535;-72
2023/04/25 06:27:43;;;;;;;5.60;5.10;;;8.60;92.20;;;;;;4993422;28;20498;-71
2023/04/25 06:30:11;;;;;;;4.50;4.10;;;8.60;92.10;;;;;;4992460;28;20450;-72
2023/04/25 06:32:40;;;;;;;4.43;4.03;;;8.70;91.60;;;;;;4992029;28;20493;-71
2023/04/25 06:35:08;;;;;;;4.60;4.20;;;8.90;91.00;;;;;;4992678;28;20447;-72
2023/04/25 06:37:34;;;;;;;4.50;4.10;;;9.10;91.00;;;;;;4992035;28;20451;-72
2023/04/25 06:40:02;;;;;;;4.13;3.83;;;9.30;91.20;;;;;;4992329;28;20471;-72
2023/04/25 06:42:29;;;;;;;6.37;5.27;;;9.50;90.00;;;;;;4991168;28;21047;-72
2023/04/25 06:44:56;;;;;;;5.03;4.63;;;9.70;88.10;;;;;;4993352;28;20489;-72
2023/04/25 06:47:23;;;;;;;4.30;3.80;;;9.90;88.20;;;;;;4992173;28;20565;-72
2023/04/25 06:49:51;;;;;;;4.50;4.10;;;10.20;83.20;;;;;;4992256;28;20465;-73
2023/04/25 06:52:18;;;;;;;4.80;4.40;;;10.30;82.20;;;;;;4991338;28;20984;-72
2023/04/25 06:54:45;;;;;;;5.70;4.00;;;10.30;81.80;;;;;;4991457;28;20474;-72
2023/04/25 06:57:12;;;;;;;4.43;4.03;;;10.50;84.70;;;;;;4992268;28;20451;-73
2023/04/25 06:59:39;;;;;;;4.33;3.93;;;10.60;80.00;;;;;;4992946;28;20463;-72
2023/04/25 07:02:06;;;;;;;4.77;4.37;;;10.60;80.30;;;;;;4991603;28;20859;-72
2023/04/25 07:04:33;;;;;;;4.83;4.30;;;10.70;81.30;;;;;;4990879;28;20446;-72
2023/04/25 07:07:02;;;;;;;4.70;4.30;;;10.60;79.60;;;;;;4992705;28;20456;-71
2023/04/25 07:09:29;;;;;;;4.83;4.43;;;10.70;79.20;;;;;;4992015;28;20486;-73
2023/04/25 07:11:56;;;;;;;4.27;3.80;;;10.60;80.60;;;;;;4994112;28;20496;-73
2023/04/25 07:14:23;;;;;;;5.20;4.60;;;10.50;81.00;;;;;;4991951;28;20454;-73
2023/04/25 07:16:50;;;;;;;5.57;5.07;;;10.30;81.10;;;;;;4992373;28;20488;-73
2023/04/25 07:19:17;;;;;;;5.50;5.00;;;10.30;80.80;;;;;;4991727;28;20463;-73
2023/04/25 07:21:44;;;;;;;6.80;6.20;;;10.20;81.50;;;;;;4991133;28;20460;-74
2023/04/25 07:24:12;;;;;;;4.77;4.27;;;10.10;82.50;;;;;;4990115;28;20940;-73
2023/04/25 07:26:39;;;;;;;5.77;5.17;;;10.10;81.60;;;;;;4991377;28;20484;-73
2023/04/25 07:29:06;;;;;;;5.97;5.47;;;10.20;84.00;;;;;;4991722;28;20953;-73
2023/04/25 07:31:32;;;;;;;5.33;4.83;;;10.20;83.30;;;;;;4991250;28;20548;-72
2023/04/25 07:33:59;;;;;;;5.37;4.50;;;10.10;81.80;;;;;;4997724;28;20460;-73
2023/04/25 07:36:27;;;;;;;6.63;5.70;;;10.00;81.20;;;;;;5010700;28;20453;-73
2023/04/25 07:38:53;;;;;;;5.23;4.70;;;9.90;84.30;;;;;;5010963;28;20521;-72
2023/04/25 07:41:22;;;;;;;6.43;5.93;;;9.80;86.80;;;;;;5011398;28;20473;-73
2023/04/25 07:43:48;;;;;;;5.50;5.00;;;9.70;86.80;;;;;;5009708;28;20493;-72
2023/04/25 07:46:15;;;;;;;6.73;5.03;;;9.70;87.10;;;;;;5010332;28;20451;-72
2023/04/25 07:48:42;;;;;;;7.17;5.20;;;9.60;88.30;;;;;;4998051;28;20485;-72
2023/04/25 07:51:09;;;;;;;6.70;5.57;;;9.60;87.90;;;;;;4991001;28;21056;-72
2023/04/25 07:53:37;;;;;;;6.77;6.10;;;9.60;89.90;;;;;;4989498;28;20474;-73
2023/04/25 07:56:04;;;;;;;5.97;5.47;;;9.60;90.50;;;;;;4999163;28;20458;-74
2023/04/25 07:58:32;;;;;;;6.13;5.40;;;9.50;90.40;;;;;;5011696;28;20791;-73
2023/04/25 08:00:59;;;;;;;7.00;6.30;;;9.30;91.00;;;;;;5011743;28;20455;-74
2023/04/25 08:03:26;;;;;;;7.30;6.60;;;9.20;91.90;;;;;;5010528;28;20221;-72
2023/04/25 08:05:53;;;;;;;7.90;7.10;;;9.10;92.10;;;;;;5011959;28;20456;-72
2023/04/25 08:08:20;;;;;;;8.87;7.13;;;8.90;93.70;;;;;;5009633;28;21227;-71
2023/04/25 08:10:47;;;;;;;8.07;7.27;;;8.80;94.60;;;;;;4999771;28;20924;-71
2023/04/25 08:13:14;;;;;;;10.40;7.77;;;8.70;95.80;;;;;;4988955;28;20479;-71
2023/04/25 08:15:42;;;;;;;10.20;7.23;;;8.60;96.60;;;;;;4991147;28;20513;-72
2023/04/25 08:18:10;;;;;;;8.70;7.90;;;8.60;97.30;;;;;;4990594;28;20467;-72
2023/04/25 08:20:36;;;;;;;8.57;7.67;;;8.50;97.30;;;;;;4990039;28;20458;-71
2023/04/25 08:23:03;;;;;;;10.13;8.90;;;8.50;97.20;;;;;;4989270;28;20573;-72
2023/04/25 08:25:30;;;;;;;8.93;8.03;;;8.40;96.30;;;;;;5018773;28;20891;-72
2023/04/25 08:27:59;;;;;;;8.80;7.90;;;8.30;95.90;;;;;;5033030;28;20847;-72
2023/04/25 08:30:26;;;;;;;10.40;9.30;;;8.30;96.70;;;;;;5032831;28;20534;-73
2023/04/25 08:32:55;;;;;;;11.50;10.13;;;8.40;98.10;;;;;;5031756;28;20565;-73
2023/04/25 08:35:21;;;;;;;10.30;9.30;;;8.50;98.10;;;;;;5032467;28;20444;-73
2023/04/25 08:37:49;;;;;;;11.87;8.90;;;8.70;98.20;;;;;;5032755;28;20456;-73
2023/04/25 08:40:16;;;;;;;9.90;8.93;;;8.90;98.10;;;;;;5012345;28;20468;-73
2023/04/25 08:42:44;;;;;;;9.20;8.30;;;9.00;98.80;;;;;;5011215;28;20577;-72
2023/04/25 08:45:11;;;;;;;11.97;9.03;;;9.10;97.60;;;;;;5015401;28;20507;-74
2023/04/25 08:47:41;;;;;;;8.23;7.43;;;9.20;97.10;;;;;;5014645;28;20464;-72
2023/04/25 08:50:09;;;;;;;9.37;8.47;;;9.00;96.40;;;;;;5012757;28;20453;-72
2023/04/25 08:52:40;;;;;;;8.97;8.17;;;8.80;97.50;;;;;;5004789;28;20474;-72
2023/04/25 08:55:10;;;;;;;8.47;7.37;;;8.50;97.90;;;;;;4992999;28;21184;-71
2023/04/25 08:57:38;;;;;;;9.23;7.00;;;8.40;97.10;;;;;;4992773;28;20458;-72
2023/04/25 09:00:07;;;;;;;8.87;7.97;;;8.30;97.10;;;;;;4992643;28;20459;-72
2023/04/25 09:02:35;;;;;;;9.10;8.10;;;8.20;98.10;;;;;;4992008;28;20480;-72
2023/04/25 09:05:04;;;;;;;12.17;10.10;;;8.10;98.50;;;;;;4996880;28;20457;-71
2023/04/25 09:07:32;;;;;;;11.07;9.90;;;8.10;99.50;;;;;;5010407;28;20462;-71
2023/04/25 09:09:59;;;;;;;9.77;8.80;;;8.10;99.50;;;;;;5007520;28;21052;-72
2023/04/25 09:12:27;;;;;;;10.93;9.30;;;8.10;99.50;;;;;;4989725;28;20896;-73
2023/04/25 09:15:05;;;;;;;10.27;8.67;;;8.10;99.30;;;;;;4991562;28;20529;-72
2023/04/25 09:17:31;;;;;;;8.80;7.90;;;8.00;99.30;;;;;;5018122;28;20451;-72
2023/04/25 09:20:10;;;;;;;10.33;8.70;;;8.00;99.10;;;;;;5024299;28;20826;-72
2023/04/25 09:22:39;;;;;;;9.23;8.33;;;8.10;99.10;;;;;;4988973;28;20481;-72
2023/04/25 09:25:10;;;;;;;11.43;8.50;;;8.10;99.20;;;;;;4990698;28;20996;-73
2023/04/25 09:27:37;;;;;;;8.87;8.07;;;8.20;99.30;;;;;;4991150;28;20549;-72
2023/04/25 09:30:05;;;;;;;9.23;8.40;;;8.10;98.80;;;;;;4991450;28;20442;-70
2023/04/25 09:32:34;;;;;;;11.90;10.53;;;8.20;98.70;;;;;;4998932;28;20581;-73
2023/04/25 09:35:01;;;;;;;12.80;10.20;;;8.10;98.70;;;;;;5011480;28;20449;-73
2023/04/25 09:37:30;;;;;;;11.97;10.77;;;8.20;99.40;;;;;;5011109;28;20458;-72
2023/04/25 09:40:02;;;;;;;9.13;8.33;;;8.20;99.70;;;;;;5011796;28;20828;-73
2023/04/25 09:42:31;;;;;;;10.37;7.97;;;8.30;99.10;;;;;;5010569;28;20474;-72
2023/04/25 09:45:01;;;;;;;8.83;8.03;;;8.20;98.30;;;;;;5011492;28;20541;-73
2023/04/25 09:47:28;;;;;;;10.87;9.73;;;8.10;97.80;;;;;;4997463;28;21073;-73
2023/04/25 09:49:56;;;;;;;12.83;10.83;;;8.00;98.90;;;;;;4991845;28;20514;-73
2023/04/25 09:52:24;;;;;;;10.37;9.37;;;8.00;99.50;;;;;;4990966;28;20850;-73
2023/04/25 09:54:52;;;;;;;10.97;9.87;;;8.00;99.30;;;;;;4991711;28;20830;-73
2023/04/25 09:57:21;;;;;;;12.90;11.77;;;8.00;99.20;;;;;;5003892;28;20474;-73
2023/04/25 09:59:50;;;;;;;9.30;8.40;;;8.00;99.30;;;;;;4999307;28;20194;-74
2023/04/25 10:02:19;;;;;;;8.63;7.40;;;8.00;99.30;;;;;;5000754;28;20480;-73
2023/04/25 10:04:49;;;;;;;11.33;6.37;;;8.00;99.40;;;;;;4999075;28;20443;-73
2023/04/25 10:07:18;;;;;;;6.67;6.07;;;8.10;99.20;;;;;;5002285;28;20457;-72
2023/04/25 10:09:48;;;;;;;7.00;6.37;;;8.10;98.90;;;;;;5000055;28;20482;-73
2023/04/25 10:12:15;;;;;;;6.17;5.60;;;8.10;98.90;;;;;;4999949;28;20998;-73
2023/04/25 10:14:43;;;;;;;5.93;5.33;;;8.10;98.60;;;;;;5000650;28;20816;-72
2023/04/25 10:17:12;;;;;;;7.97;6.00;;;8.00;98.30;;;;;;5000680;28;20828;-72
2023/04/25 10:19:40;;;;;;;7.70;6.03;;;8.00;98.30;;;;;;5001394;28;20490;-73
2023/04/25 10:22:12;;;;;;;7.27;5.47;;;7.90;98.60;;;;;;4996650;28;20480;-71
2023/04/25 10:24:40;;;;;;;7.27;6.57;;;7.70;98.90;;;;;;5002057;28;20456;-71
2023/04/25 10:27:08;;;;;;;7.27;6.57;;;7.70;99.00;;;;;;5000199;28;20457;-72
2023/04/25 10:29:36;;;;;;;7.37;6.67;;;7.40;98.20;;;;;;5003498;28;20484;-72
2023/04/25 10:32:04;;;;;;;7.63;6.47;;;7.20;98.70;;;;;;4995456;28;20485;-73
2023/04/25 10:34:42;;;;;;;7.40;6.70;;;7.00;99.30;;;;;;4997902;28;20448;-72
2023/04/25 10:37:13;;;;;;;8.47;6.80;;;6.90;99.20;;;;;;5001223;28;20448;-72
2023/04/25 10:39:41;;;;;;;7.80;6.87;;;6.90;99.50;;;;;;4994100;28;20486;-73
2023/04/25 10:42:08;;;;;;;8.97;7.90;;;6.80;99.50;;;;;;4998514;28;20498;-74
2023/04/25 10:44:37;;;;;;;8.97;7.50;;;6.80;99.80;;;;;;4993222;28;20457;-73
2023/04/25 10:47:08;;;;;;;8.60;7.37;;;6.80;99.90;;;;;;4993275;28;20451;-73
2023/04/25 10:49:36;;;;;;;9.10;8.20;;;6.80;99.90;;;;;;4993552;28;20519;-72
2023/04/25 10:52:15;;;;;;;10.77;8.93;;;6.80;99.90;;;;;;4992089;28;20475;-74
2023/04/25 10:54:44;;;;;;;8.87;7.23;;;6.80;99.90;;;;;;4991370;28;20448;-73
2023/04/25 10:57:33;;;;;;;13.67;8.93;;;6.90;99.90;;;;;;4995965;28;20480;-72
2023/04/25 11:00:04;;;;;;;8.80;7.40;;;7.00;99.90;;;;;;5002091;28;20456;-73
2023/04/25 11:02:37;;;;;;;8.37;6.77;;;7.10;99.90;;;;;;4991650;28;21287;-74
2023/04/25 11:05:04;;;;;;;7.43;6.50;;;7.00;99.90;;;;;;4992789;28;20525;-73
2023/04/25 11:07:38;;;;;;;10.00;6.60;;;7.10;99.90;;;;;;4992685;28;20541;-72
2023/04/25 11:10:06;;;;;;;6.70;6.10;;;7.10;99.90;;;;;;4996884;28;20487;-75
2023/04/25 11:12:33;;;;;;;9.00;6.17;;;7.20;99.90;;;;;;4995840;28;20471;-73
2023/04/25 11:15:02;;;;;;;6.47;5.80;;;7.30;99.90;;;;;;4996984;28;20455;-78
2023/04/25 11:17:29;;;;;;;6.50;5.87;;;7.50;99.90;;;;;;4999949;28;21005;-73
2023/04/25 11:19:58;;;;;;;6.90;4.87;;;7.60;99.60;;;;;;4998413;28;20458;-73
2023/04/25 11:22:25;;;;;;;6.03;5.43;;;7.80;98.90;;;;;;4998995;28;20497;-74
2023/04/25 11:24:52;;;;;;;5.20;4.70;;;7.90;98.70;;;;;;4998096;28;20494;-74
2023/04/25 11:27:18;;;;;;;6.53;5.23;;;8.00;99.10;;;;;;5000124;28;20500;-73
2023/04/25 11:29:47;;;;;;;5.93;5.43;;;8.10;98.80;;;;;;4998138;28;20572;-73
2023/04/25 11:32:15;;;;;;;5.53;4.97;;;8.30;98.10;;;;;;4998708;28;20465;-72
2023/04/25 11:34:45;;;;;;;6.00;4.50;;;8.40;97.10;;;;;;4997380;28;20461;-74
2023/04/25 11:37:13;;;;;;;5.87;5.27;;;8.40;96.50;;;;;;4990637;28;20449;-73
2023/04/25 11:39:45;;;;;;;4.90;4.40;;;8.40;97.60;;;;;;4990413;28;20485;-73
2023/04/25 11:42:12;;;;;;;5.40;4.90;;;8.40;97.20;;;;;;4990031;28;20466;-74
2023/04/25 11:44:39;;;;;;;5.40;4.90;;;8.40;96.90;;;;;;4994203;28;20446;-74
2023/04/25 11:47:06;;;;;;;6.43;5.77;;;8.40;97.00;;;;;;5010139;28;20449;-74
2023/04/25 11:49:34;;;;;;;5.37;4.87;;;8.30;98.00;;;;;;5005504;28;21259;-73
2023/04/25 11:52:01;;;;;;;5.50;5.00;;;8.30;98.30;;;;;;4999138;28;21077;-75
2023/04/25 11:54:29;;;;;;;5.17;4.67;;;8.70;98.00;;;;;;4990916;28;20493;-75
2023/04/25 11:56:57;;;;;;;4.90;4.50;;;8.80;96.70;;;;;;4996795;28;21015;-73
2023/04/25 11:59:26;;;;;;;6.20;5.60;;;8.80;97.30;;;;;;5005269;28;20445;-73
2023/04/25 12:01:53;;;;;;;5.70;5.20;;;8.90;97.20;;;;;;5007602;28;20445;-73
2023/04/25 12:04:21;;;;;;;7.00;6.30;;;9.00;96.60;;;;;;5000259;28;20457;-73
2023/04/25 12:06:50;;;;;;;5.07;4.67;;;9.00;97.80;;;;;;5005474;28;20579;-73
2023/04/25 12:09:18;;;;;;;5.53;4.83;;;8.90;96.30;;;;;;5008302;28;21060;-72
2023/04/25 12:11:48;;;;;;;7.00;6.30;;;8.70;96.10;;;;;;5007006;28;20464;-73
2023/04/25 12:14:23;;;;;;;5.50;4.97;;;8.60;97.90;;;;;;5006894;28;20790;-73
2023/04/25 12:16:51;;;;;;;8.90;5.77;;;8.60;97.40;;;;;;5005303;28;20544;-72
2023/04/25 12:19:19;;;;;;;6.80;6.07;;;8.60;97.40;;;;;;5007419;28;20453;-70
2023/04/25 12:21:46;;;;;;;8.07;7.17;;;8.60;97.60;;;;;;5005231;28;20452;-72
2023/04/25 12:24:14;;;;;;;7.33;6.63;;;8.60;97.40;;;;;;5000207;28;20448;-71
2023/04/25 12:26:50;;;;;;;5.97;5.27;;;8.50;97.20;;;;;;4999363;28;21015;-73
2023/04/25 12:29:21;;;;;;;6.40;5.33;;;8.40;97.40;;;;;;5000195;28;20570;-74
2023/04/25 12:31:49;;;;;;;5.90;5.30;;;8.30;97.50;;;;;;4997951;28;20459;-73
2023/04/25 12:34:16;;;;;;;7.07;6.40;;;8.20;97.70;;;;;;5003890;28;20460;-73
2023/04/25 12:36:43;;;;;;;7.10;6.40;;;8.20;98.30;;;;;;5001463;28;20449;-72
2023/04/25 12:39:15;;;;;;;6.87;6.20;;;8.20;98.70;;;;;;5004245;28;20488;-70
2023/04/25 12:41:42;;;;;;;8.10;7.20;;;8.40;98.30;;;;;;5002753;28;20551;-72
2023/04/25 12:44:10;;;;;;;8.27;6.83;;;8.80;98.80;;;;;;5003695;28;20441;-71
2023/04/25 12:46:38;;;;;;;7.77;7.00;;;9.30;98.60;;;;;;5004312;28;20442;-72
2023/04/25 12:49:06;;;;;;;6.20;5.60;;;9.80;98.60;;;;;;5003926;28;20485;-73
2023/04/25 12:51:32;;;;;;;7.67;6.63;;;10.60;95.80;;;;;;5003680;28;20454;-73
2023/04/25 12:53:59;;;;;;;7.93;6.27;;;11.40;95.80;;;;;;5001813;28;20458;-71
2023/04/25 12:56:27;;;;;;;10.40;5.93;;;11.80;93.70;;;;;;5003651;28;20531;-72
2023/04/25 12:58:54;;;;;;;6.53;5.93;;;11.70;91.20;;;;;;5005016;28;20448;-72